createdAt,value
2018-10-19T00:00:07.782Z,27.70
2018-10-19T00:02:37.086Z,23.87
2018-10-19T00:05:07.005Z,29.00
2018-10-19T00:07:36.426Z,31.53
2018-10-19T00:10:06.893Z,23.53
2018-10-19T00:12:36.435Z,22.40
2018-10-19T00:15:06.614Z,31.03
2018-10-19T00:17:36.319Z,30.53
2018-10-19T00:20:06.434Z,28.13
2018-10-19T00:22:35.964Z,35.33
2018-10-19T00:25:05.946Z,25.87
2018-10-19T00:27:35.557Z,27.00
2018-10-19T00:30:05.631Z,26.77
2018-10-19T00:32:35.229Z,25.23
2018-10-19T00:35:05.133Z,29.00
2018-10-19T00:37:34.904Z,21.23
2018-10-19T00:40:04.250Z,22.60
2018-10-19T00:42:33.450Z,21.90
2018-10-19T00:45:03.314Z,26.20
2018-10-19T00:47:32.866Z,25.87
2018-10-19T00:50:02.745Z,21.10
2018-10-19T00:52:32.212Z,28.87
2018-10-19T00:55:01.780Z,25.53
2018-10-19T00:57:31.470Z,21.53
2018-10-19T01:00:01.052Z,26.80
2018-10-19T01:02:30.586Z,26.87
2018-10-19T01:05:00.318Z,29.13
2018-10-19T01:07:29.925Z,21.80
2018-10-19T01:09:59.707Z,21.10
2018-10-19T01:12:29.160Z,19.07
2018-10-19T01:14:58.767Z,18.23
2018-10-19T01:17:28.554Z,20.60
2018-10-19T01:19:58.069Z,18.20
2018-10-19T01:22:27.946Z,19.67
2018-10-19T01:24:57.592Z,20.07
2018-10-19T01:27:27.117Z,18.67
2018-10-19T01:29:56.593Z,20.33
2018-10-19T01:32:26.050Z,18.33
2018-10-19T01:34:55.572Z,16.43
2018-10-19T01:37:25.469Z,18.20
2018-10-19T01:39:54.955Z,21.33
2018-10-19T01:42:24.533Z,19.93
2018-10-19T01:44:54.149Z,24.20
2018-10-19T01:47:23.687Z,22.93
2018-10-19T01:49:53.405Z,21.70
2018-10-19T01:52:22.935Z,19.50
2018-10-19T01:54:52.909Z,19.30
2018-10-19T01:57:22.917Z,25.77
2018-10-19T01:59:52.572Z,18.30
2018-10-19T02:02:22.466Z,25.03
2018-10-19T02:04:52.121Z,20.23
2018-10-19T02:07:21.788Z,22.67
2018-10-19T02:09:51.307Z,23.23
2018-10-19T02:12:20.725Z,24.13
2018-10-19T02:14:50.343Z,21.83
2018-10-19T02:17:19.840Z,23.33
2018-10-19T02:19:49.446Z,25.97
2018-10-19T02:22:19.176Z,22.27
2018-10-19T02:24:48.794Z,24.67
2018-10-19T02:27:18.399Z,21.33
2018-10-19T02:29:47.919Z,26.87
2018-10-19T02:32:17.551Z,27.30
2018-10-19T02:34:46.957Z,21.30
2018-10-19T02:37:16.547Z,23.63
2018-10-19T02:39:46.116Z,20.93
2018-10-19T02:42:15.972Z,25.53
2018-10-19T02:44:45.377Z,28.17
2018-10-19T02:47:14.902Z,20.60
2018-10-19T02:49:44.491Z,21.50
2018-10-19T02:52:14.071Z,20.70
2018-10-19T02:54:43.614Z,19.80
2018-10-19T02:57:13.261Z,23.00
2018-10-19T02:59:42.831Z,22.53
2018-10-19T03:02:12.485Z,26.40
2018-10-19T03:04:41.870Z,27.60
2018-10-19T03:07:11.487Z,27.43
2018-10-19T03:09:40.908Z,29.53
2018-10-19T03:12:11.135Z,34.97
2018-10-19T03:14:40.696Z,24.63
2018-10-19T03:17:10.163Z,26.63
2018-10-19T03:19:39.679Z,20.27
2018-10-19T03:22:09.318Z,24.47
2018-10-19T03:24:38.786Z,24.17
2018-10-19T03:27:09.443Z,29.17
2018-10-19T03:29:38.950Z,25.37
2018-10-19T03:32:08.445Z,23.37
2018-10-19T03:34:38.133Z,26.60
2018-10-19T03:37:07.743Z,26.57
2018-10-19T03:39:37.300Z,21.17
2018-10-19T03:42:06.899Z,21.37
2018-10-19T03:44:36.296Z,32.20
2018-10-19T03:47:06.050Z,31.33
2018-10-19T03:49:35.492Z,31.93
2018-10-19T03:52:05.378Z,29.25
2018-10-19T03:54:34.868Z,20.52
2018-10-19T03:57:05.089Z,24.63
2018-10-19T03:59:34.707Z,29.70
2018-10-19T04:02:04.181Z,22.70
2018-10-19T04:04:33.591Z,24.63
2018-10-19T04:07:03.102Z,33.08
2018-10-19T04:09:32.848Z,27.20
2018-10-19T04:12:02.353Z,24.67
2018-10-19T04:14:31.997Z,19.53
2018-10-19T04:17:02.388Z,28.75
2018-10-19T04:19:31.993Z,21.73
2018-10-19T04:22:01.480Z,23.33
2018-10-19T04:24:31.086Z,20.27
2018-10-19T04:27:00.758Z,22.33
2018-10-19T04:29:30.572Z,21.43
2018-10-19T04:32:00.032Z,20.27
2018-10-19T04:34:29.660Z,14.27
2018-10-19T04:37:03.420Z,15.87
2018-10-19T04:39:33.261Z,20.10
2018-10-19T04:42:03.759Z,20.23
2018-10-19T04:44:33.410Z,18.97
2018-10-19T04:47:02.855Z,21.73
2018-10-19T04:49:32.511Z,24.37
2018-10-19T04:52:02.071Z,19.27
2018-10-19T04:54:31.660Z,16.67
2018-10-19T04:57:01.664Z,11.90
2018-10-19T04:59:31.020Z,15.67
2018-10-19T05:02:00.913Z,15.47
2018-10-19T05:04:30.455Z,16.93
2018-10-19T05:06:59.993Z,17.90
2018-10-19T05:09:29.533Z,14.27
2018-10-19T05:11:58.966Z,20.93
2018-10-19T05:14:28.518Z,20.43
2018-10-19T05:16:57.991Z,22.27
2018-10-19T05:19:27.843Z,21.37
2018-10-19T05:21:57.429Z,18.90
2018-10-19T05:24:27.089Z,21.97
2018-10-19T05:26:56.642Z,16.97
2018-10-19T05:29:26.409Z,13.23
2018-10-19T05:31:55.877Z,19.80
2018-10-19T05:34:25.548Z,17.43
2018-10-19T05:36:55.034Z,22.37
2018-10-19T05:39:24.597Z,22.80
2018-10-19T05:41:53.962Z,23.10
2018-10-19T05:44:23.617Z,20.57
2018-10-19T05:46:53.108Z,19.70
2018-10-19T05:49:22.705Z,13.60
2018-10-19T05:51:52.409Z,16.30
2018-10-19T05:54:21.920Z,14.53
2018-10-19T05:56:51.598Z,16.57
2018-10-19T05:59:21.317Z,16.17
2018-10-19T06:01:51.486Z,17.50
2018-10-19T06:04:21.051Z,16.90
2018-10-19T06:06:50.654Z,17.93
2018-10-19T06:09:20.177Z,22.47
2018-10-19T06:11:49.755Z,19.20
2018-10-19T06:14:19.310Z,24.67
2018-10-19T06:16:48.903Z,15.53
2018-10-19T06:19:18.612Z,16.53
2018-10-19T06:21:48.169Z,16.27
2018-10-19T06:24:17.836Z,15.97
2018-10-19T06:26:47.408Z,14.20
2018-10-19T06:29:16.823Z,25.30
2018-10-19T06:31:46.332Z,24.97
2018-10-19T06:34:15.789Z,18.40
2018-10-19T06:36:45.463Z,16.90
2018-10-19T06:39:14.987Z,22.80
2018-10-19T06:41:44.394Z,21.73
2018-10-19T06:44:14.196Z,17.47
2018-10-19T06:46:44.120Z,19.00
2018-10-19T06:49:13.634Z,25.13
2018-10-19T06:51:43.116Z,21.00
2018-10-19T06:54:12.666Z,16.60
2018-10-19T06:56:42.179Z,18.33
2018-10-19T06:59:12.018Z,16.73
2018-10-19T07:01:41.356Z,16.30
2018-10-19T07:04:10.861Z,14.03
2018-10-19T07:06:40.289Z,14.20
2018-10-19T07:09:09.819Z,15.73
2018-10-19T07:11:39.635Z,16.07
2018-10-19T07:14:09.457Z,16.03
2018-10-19T07:16:38.913Z,19.83
2018-10-19T07:19:08.498Z,14.13
2018-10-19T07:21:38.128Z,16.07
2018-10-19T07:24:07.728Z,13.77
2018-10-19T07:26:37.356Z,14.87
2018-10-19T07:29:06.864Z,15.30
2018-10-19T07:31:36.152Z,16.50
2018-10-19T07:34:05.724Z,16.87
2018-10-19T07:36:35.390Z,17.07
2018-10-19T07:39:05.221Z,17.30
2018-10-19T07:41:34.755Z,17.40
2018-10-19T07:44:04.484Z,16.27
2018-10-19T07:46:34.178Z,14.50
2018-10-19T07:49:03.892Z,15.50
2018-10-19T07:51:33.191Z,18.50
2018-10-19T07:54:02.654Z,13.87
2018-10-19T07:56:32.365Z,15.10
2018-10-19T07:59:02.442Z,14.17
2018-10-19T08:01:32.021Z,11.80
2018-10-19T08:04:01.500Z,13.53
2018-10-19T08:06:31.283Z,15.67
2018-10-19T08:09:00.747Z,12.83
2018-10-19T08:11:30.614Z,12.53
2018-10-19T08:14:00.137Z,12.33
2018-10-19T08:16:30.784Z,10.83
2018-10-19T08:19:00.484Z,11.67
2018-10-19T08:21:29.951Z,12.03
2018-10-19T08:23:59.518Z,11.90
2018-10-19T08:26:29.117Z,12.53
2018-10-19T08:28:58.969Z,10.93
2018-10-19T08:31:28.549Z,10.67
2018-10-19T08:33:58.166Z,10.90
2018-10-19T08:36:27.601Z,11.43
2018-10-19T08:39:03.619Z,12.70
2018-10-19T08:41:33.147Z,11.53
2018-10-19T08:44:02.758Z,9.90
2018-10-19T08:46:39.000Z,10.00
2018-10-19T08:49:10.465Z,11.63
2018-10-19T08:51:41.189Z,9.67
2018-10-19T08:54:11.076Z,10.13
2018-10-19T08:56:40.888Z,11.10
2018-10-19T08:59:10.557Z,9.73
2018-10-19T09:01:40.010Z,10.40
2018-10-19T09:04:09.685Z,10.60
2018-10-19T09:06:39.155Z,11.30
2018-10-19T09:09:10.813Z,10.30
2018-10-19T09:11:40.653Z,9.40
2018-10-19T09:14:20.994Z,11.97
2018-10-19T09:16:50.697Z,13.43
2018-10-19T09:19:20.475Z,13.00
2018-10-19T09:21:49.921Z,11.63
2018-10-19T09:24:19.389Z,15.23
2018-10-19T09:26:48.873Z,11.77
2018-10-19T09:29:18.588Z,12.13
2018-10-19T09:31:48.090Z,11.97
2018-10-19T09:34:17.650Z,13.57
2018-10-19T09:36:47.418Z,12.03
2018-10-19T09:39:16.964Z,12.20
2018-10-19T09:41:46.564Z,13.10
2018-10-19T09:44:16.128Z,12.57
2018-10-19T09:46:46.034Z,10.33
2018-10-19T09:49:15.724Z,14.20
2018-10-19T09:51:45.368Z,12.67
2018-10-19T09:54:15.000Z,14.80
2018-10-19T09:56:44.716Z,16.20
2018-10-19T09:59:14.112Z,15.63
2018-10-19T10:01:43.926Z,13.93
2018-10-19T10:04:13.399Z,13.37
2018-10-19T10:06:43.114Z,13.30
2018-10-19T10:09:15.088Z,14.03
2018-10-19T10:11:44.939Z,13.97
2018-10-19T10:14:14.430Z,11.63
2018-10-19T10:16:44.040Z,12.53
2018-10-19T10:19:13.588Z,14.17
2018-10-19T10:21:43.195Z,14.87
2018-10-19T10:24:12.756Z,14.83
2018-10-19T10:26:42.312Z,13.70
2018-10-19T10:29:11.794Z,13.23
2018-10-19T10:31:41.224Z,14.10
2018-10-19T10:34:10.829Z,15.40
2018-10-19T10:36:40.430Z,13.97
2018-10-19T10:39:12.546Z,11.30
2018-10-19T10:41:42.718Z,12.37
2018-10-19T10:44:13.540Z,12.90
2018-10-19T10:46:43.048Z,14.07
2018-10-19T10:49:12.759Z,11.73
2018-10-19T10:51:42.298Z,12.70
2018-10-19T10:54:12.549Z,11.83
2018-10-19T10:56:43.651Z,13.90
2018-10-19T10:59:13.245Z,12.47
2018-10-19T11:01:43.017Z,13.13
2018-10-19T11:04:12.514Z,12.67
2018-10-19T11:06:42.083Z,14.10
2018-10-19T11:09:12.663Z,14.57
2018-10-19T11:11:42.408Z,12.07
2018-10-19T11:14:12.010Z,11.50
2018-10-19T11:16:41.703Z,13.00
2018-10-19T11:19:11.216Z,13.00
2018-10-19T11:21:40.950Z,12.03
2018-10-19T11:24:10.575Z,11.60
2018-10-19T11:26:40.103Z,13.43
2018-10-19T11:29:09.834Z,13.83
2018-10-19T11:31:39.683Z,14.23
2018-10-19T11:34:09.375Z,13.10
2018-10-19T11:36:38.927Z,13.37
2018-10-19T11:39:09.702Z,14.10
2018-10-19T11:41:39.755Z,12.30
2018-10-19T11:44:09.318Z,14.73
2018-10-19T11:46:38.852Z,15.63
2018-10-19T11:49:08.500Z,13.37
2018-10-19T11:51:38.087Z,16.07
2018-10-19T11:54:07.651Z,13.17
2018-10-19T11:56:37.246Z,12.30
2018-10-19T11:59:06.951Z,12.97
2018-10-19T12:01:36.402Z,14.03
2018-10-19T12:04:06.065Z,15.00
2018-10-19T12:06:35.609Z,13.63
2018-10-19T12:09:06.970Z,12.80
2018-10-19T12:11:36.568Z,14.50
2018-10-19T12:14:06.029Z,14.83
2018-10-19T12:16:35.554Z,14.87
2018-10-19T12:19:04.903Z,13.37
2018-10-19T12:21:34.220Z,12.90
2018-10-19T12:24:03.987Z,13.07
2018-10-19T12:26:33.299Z,17.33
2018-10-19T12:29:03.017Z,12.43
2018-10-19T12:31:32.597Z,13.73
2018-10-19T12:34:04.396Z,14.13
2018-10-19T12:36:33.804Z,16.03
2018-10-19T12:39:03.452Z,15.27
2018-10-19T12:41:33.434Z,12.90
2018-10-19T12:44:02.932Z,14.23
2018-10-19T12:46:44.204Z,15.73
2018-10-19T12:49:15.212Z,13.00
2018-10-19T12:51:44.907Z,15.93
2018-10-19T12:54:15.398Z,13.70
2018-10-19T12:56:45.096Z,16.30
2018-10-19T12:59:14.984Z,17.30
2018-10-19T13:01:44.534Z,15.53
2018-10-19T13:04:14.236Z,14.53
2018-10-19T13:06:44.192Z,14.27
2018-10-19T13:09:14.793Z,15.10
2018-10-19T13:11:44.526Z,13.30
2018-10-19T13:14:14.340Z,13.13
2018-10-19T13:16:43.976Z,13.43
2018-10-19T13:19:13.692Z,14.13
2018-10-19T13:21:43.201Z,16.27
2018-10-19T13:24:12.990Z,16.63
2018-10-19T13:26:42.605Z,14.87
2018-10-19T13:29:12.206Z,14.90
2018-10-19T13:31:41.941Z,13.23
2018-10-19T13:34:11.745Z,13.13
2018-10-19T13:36:41.224Z,13.77
2018-10-19T13:39:12.868Z,13.57
2018-10-19T13:41:43.072Z,14.73
2018-10-19T13:44:13.807Z,14.20
2018-10-19T13:46:43.719Z,14.63
2018-10-19T13:49:13.331Z,12.90
2018-10-19T13:51:43.443Z,11.87
2018-10-19T13:54:13.209Z,13.20
2018-10-19T13:56:43.089Z,13.30
2018-10-19T13:59:12.996Z,13.27
2018-10-19T14:01:42.970Z,14.27
2018-10-19T14:04:12.508Z,12.53
2018-10-19T14:06:42.176Z,13.77
2018-10-19T14:09:11.829Z,14.30
2018-10-19T14:11:41.690Z,16.03
2018-10-19T14:14:11.319Z,14.73
2018-10-19T14:16:41.690Z,15.27
2018-10-19T14:19:11.532Z,15.40
2018-10-19T14:21:40.979Z,13.67
2018-10-19T14:24:10.851Z,13.60
2018-10-19T14:26:40.761Z,13.47
2018-10-19T14:29:10.524Z,13.57
2018-10-19T14:31:39.997Z,15.83
2018-10-19T14:34:09.568Z,15.83
2018-10-19T14:36:39.181Z,13.27
2018-10-19T14:39:09.239Z,14.17
2018-10-19T14:41:38.922Z,14.33
2018-10-19T14:44:08.424Z,13.93
2018-10-19T14:46:37.973Z,13.87
2018-10-19T14:49:07.655Z,13.30
2018-10-19T14:51:37.051Z,12.60
2018-10-19T14:54:06.688Z,12.63
2018-10-19T14:56:35.982Z,11.93
2018-10-19T14:59:05.786Z,13.53
2018-10-19T15:01:35.182Z,14.37
2018-10-19T15:04:04.399Z,13.90
2018-10-19T15:06:33.612Z,15.43
2018-10-19T15:09:03.982Z,14.67
2018-10-19T15:11:33.380Z,12.87
2018-10-19T15:14:03.263Z,14.43
2018-10-19T15:16:32.774Z,12.87
2018-10-19T15:19:02.320Z,14.63
2018-10-19T15:21:32.165Z,16.17
2018-10-19T15:24:01.669Z,11.70
2018-10-19T15:26:31.433Z,16.80
2018-10-19T15:29:01.120Z,12.17
2018-10-19T15:31:30.639Z,13.27
2018-10-19T15:34:00.314Z,15.63
2018-10-19T15:36:29.728Z,10.93
2018-10-19T15:38:59.933Z,13.60
2018-10-19T15:41:30.971Z,13.43
2018-10-19T15:44:01.631Z,12.70
2018-10-19T15:46:32.518Z,13.33
2018-10-19T15:49:02.385Z,12.27
2018-10-19T15:51:32.162Z,13.67
2018-10-19T15:54:02.360Z,13.00
2018-10-19T15:56:32.219Z,13.30
2018-10-19T15:59:02.215Z,12.93
2018-10-19T16:01:31.752Z,14.00
2018-10-19T16:04:01.433Z,12.97
2018-10-19T16:06:31.472Z,15.20
2018-10-19T16:09:01.015Z,12.87
2018-10-19T16:11:30.533Z,13.87
2018-10-19T16:13:59.981Z,12.40
2018-10-19T16:16:29.626Z,14.00
2018-10-19T16:18:59.456Z,13.23
2018-10-19T16:21:29.112Z,12.40
2018-10-19T16:23:58.726Z,13.67
2018-10-19T16:26:29.140Z,12.33
2018-10-19T16:28:58.862Z,12.27
2018-10-19T16:31:29.364Z,13.90
2018-10-19T16:33:58.896Z,15.33
2018-10-19T16:36:28.464Z,14.47
2018-10-19T16:38:58.023Z,13.07
2018-10-19T16:41:28.005Z,13.63
2018-10-19T16:43:58.731Z,15.13
2018-10-19T16:46:28.309Z,15.47
2018-10-19T16:48:57.891Z,14.30
2018-10-19T16:51:27.502Z,15.27
2018-10-19T16:53:57.003Z,16.60
2018-10-19T16:56:26.686Z,12.53
2018-10-19T16:58:56.440Z,14.87
2018-10-19T17:01:26.740Z,17.37
2018-10-19T17:03:56.951Z,13.50
2018-10-19T17:06:27.056Z,14.70
2018-10-19T17:08:56.789Z,12.93
2018-10-19T17:11:26.504Z,13.17
2018-10-19T17:13:56.350Z,13.97
2018-10-19T17:16:26.455Z,14.47
2018-10-19T17:18:56.223Z,21.53
2018-10-19T17:21:26.538Z,15.87
2018-10-19T17:23:56.337Z,16.90
2018-10-19T17:26:26.022Z,18.03
2018-10-19T17:28:55.858Z,16.13
2018-10-19T17:31:26.349Z,14.13
2018-10-19T17:33:56.378Z,17.50
2018-10-19T17:36:26.488Z,14.90
2018-10-19T17:38:57.553Z,14.67
2018-10-19T17:41:27.126Z,17.43
2018-10-19T17:43:57.214Z,18.47
2018-10-19T17:46:27.140Z,17.43
2018-10-19T17:48:56.652Z,16.63
2018-10-19T17:51:26.561Z,17.00
2018-10-19T17:53:56.796Z,18.93
2018-10-19T17:56:26.836Z,15.67
2018-10-19T17:58:56.522Z,16.43
2018-10-19T18:01:26.082Z,17.43
2018-10-19T18:03:56.149Z,19.93
2018-10-19T18:06:25.883Z,16.97
2018-10-19T18:08:55.988Z,19.93
2018-10-19T18:11:25.684Z,18.97
2018-10-19T18:13:55.628Z,23.20
2018-10-19T18:16:27.170Z,19.80
2018-10-19T18:18:57.011Z,21.40
2018-10-19T18:21:27.113Z,18.20
2018-10-19T18:23:57.167Z,19.83
2018-10-19T18:26:27.271Z,20.97
2018-10-19T18:28:57.429Z,19.90
2018-10-19T18:31:27.663Z,19.13
2018-10-19T18:33:57.654Z,21.77
2018-10-19T18:36:27.651Z,21.47
2018-10-19T18:38:57.386Z,22.23
2018-10-19T18:41:27.124Z,22.53
2018-10-19T18:43:58.139Z,24.13
2018-10-19T18:46:28.396Z,21.33
2018-10-19T18:48:58.847Z,19.97
2018-10-19T18:51:28.644Z,19.47
2018-10-19T18:53:58.459Z,21.03
2018-10-19T18:56:28.196Z,24.00
2018-10-19T18:58:57.850Z,23.17
2018-10-19T19:01:27.877Z,20.57
2018-10-19T19:03:57.834Z,20.97
2018-10-19T19:06:27.643Z,20.27
2018-10-19T19:08:57.346Z,20.77
2018-10-19T19:11:27.007Z,18.07
2018-10-19T19:13:56.805Z,19.53
2018-10-19T19:16:29.608Z,20.70
2018-10-19T19:18:59.208Z,20.90
2018-10-19T19:21:28.969Z,22.23
2018-10-19T19:24:04.005Z,20.10
2018-10-19T19:26:33.366Z,22.60
2018-10-19T19:31:38.174Z,20.47
2018-10-19T19:34:12.995Z,22.93
2018-10-19T19:36:42.569Z,23.93
2018-10-19T19:39:12.120Z,22.23
2018-10-19T19:41:46.828Z,24.20
2018-10-19T19:44:16.926Z,22.77
2018-10-19T19:46:46.669Z,19.47
2018-10-19T19:49:21.514Z,20.93
2018-10-19T19:51:51.368Z,22.93
2018-10-19T19:54:20.852Z,22.57
2018-10-19T19:56:50.822Z,20.57
2018-10-19T19:59:20.486Z,20.87
2018-10-19T20:01:50.481Z,21.97
2018-10-19T20:04:20.134Z,21.13
2018-10-19T20:06:49.655Z,20.83
2018-10-19T20:09:20.461Z,25.53
2018-10-19T20:11:50.457Z,22.87
2018-10-19T20:14:20.168Z,21.17
2018-10-19T20:16:49.743Z,21.97
2018-10-19T20:19:19.688Z,22.83
2018-10-19T20:21:49.281Z,23.60
2018-10-19T20:24:19.050Z,21.77
2018-10-19T20:26:49.020Z,21.30
2018-10-19T20:29:18.612Z,23.67
2018-10-19T20:31:48.071Z,24.37
2018-10-19T20:34:17.855Z,25.53
2018-10-19T20:36:47.540Z,21.40
2018-10-19T20:39:17.685Z,25.77
2018-10-19T20:41:47.393Z,23.57
2018-10-19T20:44:17.341Z,23.90
2018-10-19T20:46:46.979Z,23.90
2018-10-19T20:49:17.250Z,23.93
2018-10-19T20:51:47.067Z,21.87
2018-10-19T20:54:16.941Z,24.57
2018-10-19T20:56:46.490Z,23.83
2018-10-19T20:59:16.295Z,19.53
2018-10-19T21:01:46.465Z,19.77
2018-10-19T21:04:16.193Z,24.07
2018-10-19T21:06:47.255Z,19.50
2018-10-19T21:09:16.833Z,23.57
2018-10-19T21:11:46.451Z,25.20
2018-10-19T21:14:16.171Z,26.33
2018-10-19T21:16:46.069Z,25.77
2018-10-19T21:19:15.724Z,22.87
2018-10-19T21:21:45.418Z,29.23
2018-10-19T21:24:15.362Z,22.90
2018-10-19T21:26:45.211Z,22.13
2018-10-19T21:29:14.801Z,24.40
2018-10-19T21:31:44.638Z,23.03
2018-10-19T21:34:14.024Z,25.83
2018-10-19T21:36:43.714Z,26.47
2018-10-19T21:39:13.439Z,26.63
2018-10-19T21:41:43.172Z,22.70
2018-10-19T21:44:12.837Z,27.63
2018-10-19T21:46:42.738Z,24.60
2018-10-19T21:49:12.819Z,25.83
2018-10-19T21:51:42.555Z,25.33
2018-10-19T21:54:12.213Z,24.77
2018-10-19T21:56:42.220Z,24.83
2018-10-19T21:59:12.512Z,22.77
2018-10-19T22:01:42.303Z,21.63
2018-10-19T22:04:11.883Z,24.77
2018-10-19T22:06:41.509Z,21.67
2018-10-19T22:09:13.166Z,22.33
2018-10-19T22:11:43.498Z,22.60
2018-10-19T22:14:13.064Z,24.87
2018-10-19T22:16:42.808Z,23.47
2018-10-19T22:19:12.369Z,24.00
2018-10-19T22:21:42.230Z,24.17
2018-10-19T22:24:11.949Z,27.43
2018-10-19T22:26:41.598Z,22.17
2018-10-19T22:29:11.289Z,24.03
2018-10-19T22:31:41.070Z,21.93
2018-10-19T22:34:10.541Z,24.13
2018-10-19T22:36:40.024Z,23.43
2018-10-19T22:39:09.466Z,26.13
2018-10-19T22:41:39.325Z,22.37
2018-10-19T22:44:09.122Z,27.43
2018-10-19T22:46:38.654Z,24.37
2018-10-19T22:49:08.332Z,23.13
2018-10-19T22:51:38.129Z,21.93
2018-10-19T22:54:07.769Z,24.53
2018-10-19T22:56:38.164Z,23.43
2018-10-19T22:59:08.060Z,23.50
2018-10-19T23:01:37.821Z,20.30
2018-10-19T23:04:07.769Z,17.97
2018-10-19T23:06:37.524Z,25.50
2018-10-19T23:09:09.077Z,19.60
2018-10-19T23:11:38.879Z,23.33
2018-10-19T23:14:08.609Z,20.03
2018-10-19T23:16:38.259Z,24.57
2018-10-19T23:19:08.043Z,23.90
2018-10-19T23:21:37.926Z,19.70
2018-10-19T23:24:08.186Z,25.53
2018-10-19T23:26:37.818Z,24.27
2018-10-19T23:29:07.480Z,27.77
2018-10-19T23:31:37.237Z,26.40
2018-10-19T23:34:06.584Z,18.43
2018-10-19T23:36:36.298Z,24.07
2018-10-19T23:39:08.329Z,24.70
2018-10-19T23:41:38.079Z,20.00
2018-10-19T23:44:07.693Z,22.00
2018-10-19T23:46:37.401Z,20.90
2018-10-19T23:49:07.264Z,19.60
2018-10-19T23:51:36.725Z,23.77
2018-10-19T23:54:06.412Z,23.57
2018-10-19T23:56:36.834Z,23.83
2018-10-19T23:59:06.385Z,22.63
